sensor_id;sensor_type;location;lat;lon;timestamp;temperature;humidity
29003;DHT22;16102;57.138;-2.118;2023-04-29T05:02:31;6.00;1.00
29003;DHT22;16102;57.138;-2.118;2023-04-29T05:04:58;6.00;1.00
29003;DHT22;16102;57.138;-2.118;2023-04-29T05:07:25;6.10;1.00
29003;DHT22;16102;57.138;-2.118;2023-04-29T05:09:52;6.10;1.00
29003;DHT22;16102;57.138;-2.118;2023-04-29T05:12:19;6.10;1.00
29003;DHT22;16102;57.138;-2.118;2023-04-29T05:14:46;6.10;1.00
29003;DHT22;16102;57.138;-2.118;2023-04-29T05:17:13;6.10;1.00
29003;DHT22;16102;57.138;-2.118;2023-04-29T05:19:40;6.10;1.00
29003;DHT22;16102;57.138;-2.118;2023-04-29T05:22:07;6.10;1.00
29003;DHT22;16102;57.138;-2.118;2023-04-29T05:24:34;6.00;1.00
29003;DHT22;16102;57.138;-2.118;2023-04-29T05:27:01;5.90;1.00
29003;DHT22;16102;57.138;-2.118;2023-04-29T05:29:30;5.90;1.00
29003;DHT22;16102;57.138;-2.118;2023-04-29T05:31:57;5.90;1.00
29003;DHT22;16102;57.138;-2.118;2023-04-29T05:34:24;5.90;1.00
29003;DHT22;16102;57.138;-2.118;2023-04-29T05:36:52;6.00;1.00
29003;DHT22;16102;57.138;-2.118;2023-04-29T05:39:18;5.90;1.00
29003;DHT22;16102;57.138;-2.118;2023-04-29T05:41:45;5.90;1.00
29003;DHT22;16102;57.138;-2.118;2023-04-29T05:44:12;5.80;1.00
29003;DHT22;16102;57.138;-2.118;2023-04-29T05:46:39;5.70;1.00
29003;DHT22;16102;57.138;-2.118;2023-04-29T05:49:07;5.70;1.00
29003;DHT22;16102;57.138;-2.118;2023-04-29T05:51:34;5.80;1.00
29003;DHT22;16102;57.138;-2.118;2023-04-29T05:54:01;5.80;1.00
29003;DHT22;16102;57.138;-2.118;2023-04-29T05:56:28;5.90;1.00
29003;DHT22;16102;57.138;-2.118;2023-04-29T05:58:55;5.80;1.00
29003;DHT22;16102;57.138;-2.118;2023-04-29T06:01:22;5.70;1.00
29003;DHT22;16102;57.138;-2.118;2023-04-29T06:03:49;5.80;1.00
29003;DHT22;16102;57.138;-2.118;2023-04-29T06:06:16;5.80;1.00
29003;DHT22;16102;57.138;-2.118;2023-04-29T06:08:44;5.80;1.00
29003;DHT22;16102;57.138;-2.118;2023-04-29T06:11:11;5.70;1.00
29003;DHT22;16102;57.138;-2.118;2023-04-29T06:13:38;5.80;1.00
29003;DHT22;16102;57.138;-2.118;2023-04-29T06:16:05;5.80;1.00
29003;DHT22;16102;57.138;-2.118;2023-04-29T06:18:33;5.80;1.00
29003;DHT22;16102;57.138;-2.118;2023-04-29T06:21:00;5.90;1.00
29003;DHT22;16102;57.138;-2.118;2023-04-29T06:23:26;6.00;1.00
29003;DHT22;16102;57.138;-2.118;2023-04-29T06:25:53;6.00;1.00
29003;DHT22;16102;57.138;-2.118;2023-04-29T06:28:20;6.10;1.00
29003;DHT22;16102;57.138;-2.118;2023-04-29T06:30:47;6.10;1.00
29003;DHT22;16102;57.138;-2.118;2023-04-29T06:33:14;6.10;1.00
29003;DHT22;16102;57.138;-2.118;2023-04-29T06:35:41;6.20;1.00
29003;DHT22;16102;57.138;-2.118;2023-04-29T06:38:08;6.20;1.00
29003;DHT22;16102;57.138;-2.118;2023-04-29T06:40:35;6.20;1.00
29003;DHT22;16102;57.138;-2.118;2023-04-29T06:43:02;6.20;1.00
29003;DHT22;16102;57.138;-2.118;2023-04-29T06:45:30;6.20;1.00
29003;DHT22;16102;57.138;-2.118;2023-04-29T06:47:57;6.20;1.00
29003;DHT22;16102;57.138;-2.118;2023-04-29T06:50:24;6.20;1.00
29003;DHT22;16102;57.138;-2.118;2023-04-29T06:52:51;6.10;1.00
29003;DHT22;16102;57.138;-2.118;2023-04-29T06:55:19;6.20;1.00
29003;DHT22;16102;57.138;-2.118;2023-04-29T06:57:46;6.20;1.00
29003;DHT22;16102;57.138;-2.118;2023-04-29T07:00:13;6.20;1.00
29003;DHT22;16102;57.138;-2.118;2023-04-29T07:02:41;6.30;1.00
29003;DHT22;16102;57.138;-2.118;2023-04-29T07:05:09;6.40;1.00
29003;DHT22;16102;57.138;-2.118;2023-04-29T07:07:36;6.40;1.00
29003;DHT22;16102;57.138;-2.118;2023-04-29T07:10:03;6.40;1.00
29003;DHT22;16102;57.138;-2.118;2023-04-29T07:12:30;6.40;1.00
29003;DHT22;16102;57.138;-2.118;2023-04-29T07:14:57;6.50;1.00
29003;DHT22;16102;57.138;-2.118;2023-04-29T07:17:24;6.50;1.00
29003;DHT22;16102;57.138;-2.118;2023-04-29T07:19:51;6.60;1.00
29003;DHT22;16102;57.138;-2.118;2023-04-29T07:22:19;6.70;1.00
29003;DHT22;16102;57.138;-2.118;2023-04-29T07:24:46;6.80;1.00
29003;DHT22;16102;57.138;-2.118;2023-04-29T07:27:13;6.80;1.00
29003;DHT22;16102;57.138;-2.118;2023-04-29T07:29:40;6.80;1.00
29003;DHT22;16102;57.138;-2.118;2023-04-29T07:32:07;6.90;1.00
29003;DHT22;16102;57.138;-2.118;2023-04-29T07:34:33;7.00;99.90
29003;DHT22;16102;57.138;-2.118;2023-04-29T07:37:00;7.00;99.90
29003;DHT22;16102;57.138;-2.118;2023-04-29T07:39:27;7.00;99.90
29003;DHT22;16102;57.138;-2.118;2023-04-29T07:41:55;7.00;99.90
29003;DHT22;16102;57.138;-2.118;2023-04-29T07:44:22;7.10;99.90
29003;DHT22;16102;57.138;-2.118;2023-04-29T07:46:49;7.10;99.90
29003;DHT22;16102;57.138;-2.118;2023-04-29T07:49:16;7.00;99.90
29003;DHT22;16102;57.138;-2.118;2023-04-29T07:51:43;7.10;99.90
29003;DHT22;16102;57.138;-2.118;2023-04-29T07:54:10;7.10;99.90
29003;DHT22;16102;57.138;-2.118;2023-04-29T07:56:37;7.20;99.90
29003;DHT22;16102;57.138;-2.118;2023-04-29T07:59:04;7.10;99.90
29003;DHT22;16102;57.138;-2.118;2023-04-29T08:01:31;7.20;99.90
29003;DHT22;16102;57.138;-2.118;2023-04-29T08:03:58;7.40;99.90
29003;DHT22;16102;57.138;-2.118;2023-04-29T08:06:25;7.30;99.90
29003;DHT22;16102;57.138;-2.118;2023-04-29T08:08:52;7.30;99.90
29003;DHT22;16102;57.138;-2.118;2023-04-29T08:11:21;7.40;99.90
29003;DHT22;16102;57.138;-2.118;2023-04-29T08:13:50;7.30;99.90
29003;DHT22;16102;57.138;-2.118;2023-04-29T08:16:17;7.30;99.90
29003;DHT22;16102;57.138;-2.118;2023-04-29T08:18:44;7.50;99.90
29003;DHT22;16102;57.138;-2.118;2023-04-29T08:21:11;7.70;99.90
29003;DHT22;16102;57.138;-2.118;2023-04-29T08:23:39;7.80;99.90
29003;DHT22;16102;57.138;-2.118;2023-04-29T08:26:06;8.00;99.90
29003;DHT22;16102;57.138;-2.118;2023-04-29T08:28:33;7.90;99.90
29003;DHT22;16102;57.138;-2.118;2023-04-29T08:31:00;8.00;99.90
29003;DHT22;16102;57.138;-2.118;2023-04-29T08:33:27;8.20;99.90
29003;DHT22;16102;57.138;-2.118;2023-04-29T08:35:58;8.20;99.90
29003;DHT22;16102;57.138;-2.118;2023-04-29T08:38:26;8.20;99.90
29003;DHT22;16102;57.138;-2.118;2023-04-29T08:40:53;8.10;99.90
29003;DHT22;16102;57.138;-2.118;2023-04-29T08:43:20;8.20;99.90
29003;DHT22;16102;57.138;-2.118;2023-04-29T08:45:48;8.40;99.90
29003;DHT22;16102;57.138;-2.118;2023-04-29T08:48:16;8.60;99.90
29003;DHT22;16102;57.138;-2.118;2023-04-29T08:50:43;8.70;99.90
29003;DHT22;16102;57.138;-2.118;2023-04-29T08:53:12;8.70;99.90
29003;DHT22;16102;57.138;-2.118;2023-04-29T08:55:46;8.80;99.90
29003;DHT22;16102;57.138;-2.118;2023-04-29T08:58:14;8.70;99.90
29003;DHT22;16102;57.138;-2.118;2023-04-29T09:00:42;8.50;99.90
29003;DHT22;16102;57.138;-2.118;2023-04-29T09:05:48;8.50;99.90
29003;DHT22;16102;57.138;-2.118;2023-04-29T09:08:20;8.50;99.90
29003;DHT22;16102;57.138;-2.118;2023-04-29T09:10:48;8.60;99.90
29003;DHT22;16102;57.138;-2.118;2023-04-29T09:13:29;8.80;99.90
29003;DHT22;16102;57.138;-2.118;2023-04-29T09:15:57;9.00;99.90
29003;DHT22;16102;57.138;-2.118;2023-04-29T09:18:44;9.20;99.90
29003;DHT22;16102;57.138;-2.118;2023-04-29T09:21:16;9.30;99.90
29003;DHT22;16102;57.138;-2.118;2023-04-29T09:23:52;9.40;99.90
29003;DHT22;16102;57.138;-2.118;2023-04-29T09:26:19;9.40;99.90
29003;DHT22;16102;57.138;-2.118;2023-04-29T09:28:49;9.00;99.90
29003;DHT22;16102;57.138;-2.118;2023-04-29T09:31:31;9.00;99.90
29003;DHT22;16102;57.138;-2.118;2023-04-29T09:33:58;9.30;99.90
29003;DHT22;16102;57.138;-2.118;2023-04-29T09:39:05;9.60;99.90
29003;DHT22;16102;57.138;-2.118;2023-04-29T09:41:58;9.70;99.90
29003;DHT22;16102;57.138;-2.118;2023-04-29T09:44:30;9.80;99.90
29003;DHT22;16102;57.138;-2.118;2023-04-29T09:49:32;10.10;99.90
29003;DHT22;16102;57.138;-2.118;2023-04-29T09:52:04;10.20;99.90
29003;DHT22;16102;57.138;-2.118;2023-04-29T09:54:35;10.20;99.90
29003;DHT22;16102;57.138;-2.118;2023-04-29T09:57:03;10.30;99.90
29003;DHT22;16102;57.138;-2.118;2023-04-29T09:59:38;10.30;99.90
29003;DHT22;16102;57.138;-2.118;2023-04-29T10:02:16;10.20;99.90
29003;DHT22;16102;57.138;-2.118;2023-04-29T10:04:52;10.10;99.90
29003;DHT22;16102;57.138;-2.118;2023-04-29T10:07:20;10.10;99.90
29003;DHT22;16102;57.138;-2.118;2023-04-29T10:09:48;9.90;99.90
29003;DHT22;16102;57.138;-2.118;2023-04-29T10:12:18;9.90;99.90
29003;DHT22;16102;57.138;-2.118;2023-04-29T10:15:01;9.90;99.90
29003;DHT22;16102;57.138;-2.118;2023-04-29T10:17:43;9.80;99.90
29003;DHT22;16102;57.138;-2.118;2023-04-29T10:20:13;9.70;99.90
29003;DHT22;16102;57.138;-2.118;2023-04-29T10:22:49;9.80;99.90
29003;DHT22;16102;57.138;-2.118;2023-04-29T10:25:18;9.50;99.90
29003;DHT22;16102;57.138;-2.118;2023-04-29T10:27:46;9.70;99.90
29003;DHT22;16102;57.138;-2.118;2023-04-29T10:30:15;9.80;99.90
29003;DHT22;16102;57.138;-2.118;2023-04-29T10:32:45;9.60;99.90
29003;DHT22;16102;57.138;-2.118;2023-04-29T10:35:16;9.70;99.90
29003;DHT22;16102;57.138;-2.118;2023-04-29T10:37:47;10.00;99.90
29003;DHT22;16102;57.138;-2.118;2023-04-29T10:40:27;10.10;99.90
29003;DHT22;16102;57.138;-2.118;2023-04-29T10:42:56;10.40;99.90
29003;DHT22;16102;57.138;-2.118;2023-04-29T10:45:28;10.30;99.90
29003;DHT22;16102;57.138;-2.118;2023-04-29T10:50:33;10.40;99.90
29003;DHT22;16102;57.138;-2.118;2023-04-29T10:53:04;10.10;99.90
29003;DHT22;16102;57.138;-2.118;2023-04-29T10:55:32;10.20;99.90
29003;DHT22;16102;57.138;-2.118;2023-04-29T10:58:02;10.30;99.90
29003;DHT22;16102;57.138;-2.118;2023-04-29T11:00:32;10.40;99.90
29003;DHT22;16102;57.138;-2.118;2023-04-29T11:03:00;10.40;99.90
29003;DHT22;16102;57.138;-2.118;2023-04-29T11:05:35;10.40;99.90
29003;DHT22;16102;57.138;-2.118;2023-04-29T11:08:13;10.40;99.90
29003;DHT22;16102;57.138;-2.118;2023-04-29T11:10:42;10.30;99.90
29003;DHT22;16102;57.138;-2.118;2023-04-29T11:13:29;10.20;99.90
29003;DHT22;16102;57.138;-2.118;2023-04-29T11:16:07;10.30;99.90
29003;DHT22;16102;57.138;-2.118;2023-04-29T11:18:36;10.30;99.90
29003;DHT22;16102;57.138;-2.118;2023-04-29T11:23:37;10.50;99.90
29003;DHT22;16102;57.138;-2.118;2023-04-29T11:26:05;10.60;99.90
29003;DHT22;16102;57.138;-2.118;2023-04-29T11:28:32;10.70;99.90
29003;DHT22;16102;57.138;-2.118;2023-04-29T11:30:59;10.80;99.90
29003;DHT22;16102;57.138;-2.118;2023-04-29T11:33:27;10.80;99.90
29003;DHT22;16102;57.138;-2.118;2023-04-29T11:35:54;10.80;99.90
29003;DHT22;16102;57.138;-2.118;2023-04-29T11:38:28;10.80;99.90
29003;DHT22;16102;57.138;-2.118;2023-04-29T11:40:57;11.00;99.90
29003;DHT22;16102;57.138;-2.118;2023-04-29T11:43:24;11.10;99.90
29003;DHT22;16102;57.138;-2.118;2023-04-29T11:45:52;11.10;99.90
29003;DHT22;16102;57.138;-2.118;2023-04-29T11:48:20;11.30;99.90
29003;DHT22;16102;57.138;-2.118;2023-04-29T11:50:52;11.30;99.90
29003;DHT22;16102;57.138;-2.118;2023-04-29T11:53:22;11.40;99.90
29003;DHT22;16102;57.138;-2.118;2023-04-29T11:55:52;11.50;99.90
29003;DHT22;16102;57.138;-2.118;2023-04-29T11:58:23;11.50;99.90
29003;DHT22;16102;57.138;-2.118;2023-04-29T12:00:50;11.60;99.90
29003;DHT22;16102;57.138;-2.118;2023-04-29T12:03:20;11.80;99.90
29003;DHT22;16102;57.138;-2.118;2023-04-29T12:05:50;12.10;99.90
29003;DHT22;16102;57.138;-2.118;2023-04-29T12:08:28;12.30;99.90
29003;DHT22;16102;57.138;-2.118;2023-04-29T12:10:57;11.90;99.90
29003;DHT22;16102;57.138;-2.118;2023-04-29T12:13:26;12.10;99.90
29003;DHT22;16102;57.138;-2.118;2023-04-29T12:15:55;12.30;99.90
29003;DHT22;16102;57.138;-2.118;2023-04-29T12:18:23;12.40;99.90
29003;DHT22;16102;57.138;-2.118;2023-04-29T12:20:50;12.40;99.90
29003;DHT22;16102;57.138;-2.118;2023-04-29T12:23:19;12.50;99.90
29003;DHT22;16102;57.138;-2.118;2023-04-29T12:25:51;12.40;99.90
29003;DHT22;16102;57.138;-2.118;2023-04-29T12:28:19;12.00;99.90
29003;DHT22;16102;57.138;-2.118;2023-04-29T12:30:47;11.50;99.90
29003;DHT22;16102;57.138;-2.118;2023-04-29T12:33:28;11.50;99.90
29003;DHT22;16102;57.138;-2.118;2023-04-29T12:35:56;11.40;99.90
29003;DHT22;16102;57.138;-2.118;2023-04-29T12:38:25;11.20;99.90
29003;DHT22;16102;57.138;-2.118;2023-04-29T12:40:57;11.40;99.90
29003;DHT22;16102;57.138;-2.118;2023-04-29T12:43:28;11.70;99.90
29003;DHT22;16102;57.138;-2.118;2023-04-29T12:46:06;11.70;99.90
29003;DHT22;16102;57.138;-2.118;2023-04-29T12:48:35;11.70;99.90
29003;DHT22;16102;57.138;-2.118;2023-04-29T12:51:08;11.40;99.90
29003;DHT22;16102;57.138;-2.118;2023-04-29T12:53:36;11.70;99.90
29003;DHT22;16102;57.138;-2.118;2023-04-29T12:56:04;12.00;99.90
29003;DHT22;16102;57.138;-2.118;2023-04-29T12:58:32;12.20;99.90
29003;DHT22;16102;57.138;-2.118;2023-04-29T13:01:00;12.40;99.90
29003;DHT22;16102;57.138;-2.118;2023-04-29T13:03:27;12.30;99.90
29003;DHT22;16102;57.138;-2.118;2023-04-29T13:05:54;12.10;99.90
29003;DHT22;16102;57.138;-2.118;2023-04-29T13:08:21;12.00;99.90
29003;DHT22;16102;57.138;-2.118;2023-04-29T13:10:48;12.00;99.90
29003;DHT22;16102;57.138;-2.118;2023-04-29T13:13:15;11.90;99.90
29003;DHT22;16102;57.138;-2.118;2023-04-29T13:15:42;11.90;99.90
29003;DHT22;16102;57.138;-2.118;2023-04-29T13:18:09;11.90;99.90
29003;DHT22;16102;57.138;-2.118;2023-04-29T13:20:36;11.90;99.90
29003;DHT22;16102;57.138;-2.118;2023-04-29T13:23:08;12.10;99.90
29003;DHT22;16102;57.138;-2.118;2023-04-29T13:25:35;12.30;99.90
29003;DHT22;16102;57.138;-2.118;2023-04-29T13:28:02;12.30;99.90
29003;DHT22;16102;57.138;-2.118;2023-04-29T13:30:31;12.40;99.90
29003;DHT22;16102;57.138;-2.118;2023-04-29T13:32:59;12.40;99.90
29003;DHT22;16102;57.138;-2.118;2023-04-29T13:35:37;12.20;99.90
29003;DHT22;16102;57.138;-2.118;2023-04-29T13:38:06;12.20;99.90
29003;DHT22;16102;57.138;-2.118;2023-04-29T13:40:33;12.10;99.90
29003;DHT22;16102;57.138;-2.118;2023-04-29T13:43:07;11.60;99.90
29003;DHT22;16102;57.138;-2.118;2023-04-29T13:45:36;11.60;99.90
29003;DHT22;16102;57.138;-2.118;2023-04-29T13:48:09;11.70;99.90
29003;DHT22;16102;57.138;-2.118;2023-04-29T13:50:56;11.30;99.90
29003;DHT22;16102;57.138;-2.118;2023-04-29T13:53:43;11.20;99.90
29003;DHT22;16102;57.138;-2.118;2023-04-29T13:56:30;11.40;99.90
29003;DHT22;16102;57.138;-2.118;2023-04-29T13:59:00;10.80;99.90
29003;DHT22;16102;57.138;-2.118;2023-04-29T14:01:30;10.90;99.90
29003;DHT22;16102;57.138;-2.118;2023-04-29T14:04:00;11.10;99.90
29003;DHT22;16102;57.138;-2.118;2023-04-29T14:06:27;10.90;99.90
29003;DHT22;16102;57.138;-2.118;2023-04-29T14:08:55;10.80;99.90
29003;DHT22;16102;57.138;-2.118;2023-04-29T14:11:21;10.90;99.90
29003;DHT22;16102;57.138;-2.118;2023-04-29T14:13:49;10.70;99.90
29003;DHT22;16102;57.138;-2.118;2023-04-29T14:16:16;10.90;99.90
29003;DHT22;16102;57.138;-2.118;2023-04-29T14:18:43;10.70;99.90
29003;DHT22;16102;57.138;-2.118;2023-04-29T14:21:10;10.80;99.90
29003;DHT22;16102;57.138;-2.118;2023-04-29T14:23:37;10.60;99.90
29003;DHT22;16102;57.138;-2.118;2023-04-29T14:26:04;10.80;99.90
29003;DHT22;16102;57.138;-2.118;2023-04-29T14:28:52;10.80;99.90
29003;DHT22;16102;57.138;-2.118;2023-04-29T14:31:24;10.80;99.90
29003;DHT22;16102;57.138;-2.118;2023-04-29T14:33:54;10.80;99.90
29003;DHT22;16102;57.138;-2.118;2023-04-29T14:36:21;10.70;99.90
29003;DHT22;16102;57.138;-2.118;2023-04-29T14:38:48;10.80;99.90
29003;DHT22;16102;57.138;-2.118;2023-04-29T14:41:15;10.80;99.90
29003;DHT22;16102;57.138;-2.118;2023-04-29T14:43:42;10.80;99.90
29003;DHT22;16102;57.138;-2.118;2023-04-29T14:46:10;10.80;99.90
29003;DHT22;16102;57.138;-2.118;2023-04-29T14:48:37;10.80;99.90
29003;DHT22;16102;57.138;-2.118;2023-04-29T14:51:04;10.80;99.90
29003;DHT22;16102;57.138;-2.118;2023-04-29T14:53:32;10.70;99.90
29003;DHT22;16102;57.138;-2.118;2023-04-29T14:55:59;10.70;99.90
29003;DHT22;16102;57.138;-2.118;2023-04-29T14:58:26;10.80;99.90
29003;DHT22;16102;57.138;-2.118;2023-04-29T15:00:54;10.90;99.90
29003;DHT22;16102;57.138;-2.118;2023-04-29T15:03:22;10.70;99.90
29003;DHT22;16102;57.138;-2.118;2023-04-29T15:05:49;10.80;99.90
29003;DHT22;16102;57.138;-2.118;2023-04-29T15:08:17;10.90;99.90
29003;DHT22;16102;57.138;-2.118;2023-04-29T15:10:45;10.80;99.90
29003;DHT22;16102;57.138;-2.118;2023-04-29T15:13:13;11.00;99.90
29003;DHT22;16102;57.138;-2.118;2023-04-29T15:15:40;11.40;99.90
29003;DHT22;16102;57.138;-2.118;2023-04-29T15:18:07;11.80;99.90
29003;DHT22;16102;57.138;-2.118;2023-04-29T15:20:35;12.30;99.90
29003;DHT22;16102;57.138;-2.118;2023-04-29T15:23:03;12.20;99.90
29003;DHT22;16102;57.138;-2.118;2023-04-29T15:25:31;11.80;99.90
29003;DHT22;16102;57.138;-2.118;2023-04-29T15:28:02;11.20;99.90
29003;DHT22;16102;57.138;-2.118;2023-04-29T15:30:30;11.00;99.90
29003;DHT22;16102;57.138;-2.118;2023-04-29T15:32:57;11.00;99.90
29003;DHT22;16102;57.138;-2.118;2023-04-29T15:35:25;11.00;99.90
29003;DHT22;16102;57.138;-2.118;2023-04-29T15:37:52;11.50;99.90
29003;DHT22;16102;57.138;-2.118;2023-04-29T15:40:22;11.20;99.90
29003;DHT22;16102;57.138;-2.118;2023-04-29T15:42:49;11.30;99.90
29003;DHT22;16102;57.138;-2.118;2023-04-29T15:45:16;11.40;99.90
29003;DHT22;16102;57.138;-2.118;2023-04-29T15:47:43;11.50;99.90
29003;DHT22;16102;57.138;-2.118;2023-04-29T15:50:10;11.10;99.90
29003;DHT22;16102;57.138;-2.118;2023-04-29T15:52:37;10.50;99.90
29003;DHT22;16102;57.138;-2.118;2023-04-29T15:55:05;10.60;99.90
29003;DHT22;16102;57.138;-2.118;2023-04-29T15:57:32;10.50;99.90
29003;DHT22;16102;57.138;-2.118;2023-04-29T16:00:00;10.50;99.90
29003;DHT22;16102;57.138;-2.118;2023-04-29T16:02:27;10.40;99.90
29003;DHT22;16102;57.138;-2.118;2023-04-29T16:04:54;10.20;99.90
29003;DHT22;16102;57.138;-2.118;2023-04-29T16:07:21;10.30;99.90
29003;DHT22;16102;57.138;-2.118;2023-04-29T16:09:48;10.20;99.90
29003;DHT22;16102;57.138;-2.118;2023-04-29T16:12:15;10.30;99.90
29003;DHT22;16102;57.138;-2.118;2023-04-29T16:14:42;10.10;99.90
29003;DHT22;16102;57.138;-2.118;2023-04-29T16:17:09;10.00;99.90
29003;DHT22;16102;57.138;-2.118;2023-04-29T16:19:36;10.10;99.90
29003;DHT22;16102;57.138;-2.118;2023-04-29T16:22:03;9.50;99.90
29003;DHT22;16102;57.138;-2.118;2023-04-29T16:24:30;9.60;99.90
29003;DHT22;16102;57.138;-2.118;2023-04-29T16:26:57;9.50;99.90
29003;DHT22;16102;57.138;-2.118;2023-04-29T16:29:25;9.60;99.90
29003;DHT22;16102;57.138;-2.118;2023-04-29T16:31:52;9.60;99.90
29003;DHT22;16102;57.138;-2.118;2023-04-29T16:34:19;9.70;99.90
29003;DHT22;16102;57.138;-2.118;2023-04-29T16:36:46;9.60;99.90
29003;DHT22;16102;57.138;-2.118;2023-04-29T16:39:13;9.60;99.90
29003;DHT22;16102;57.138;-2.118;2023-04-29T16:41:40;9.40;99.90
29003;DHT22;16102;57.138;-2.118;2023-04-29T16:44:07;9.30;99.90
29003;DHT22;16102;57.138;-2.118;2023-04-29T16:46:34;9.30;99.90
29003;DHT22;16102;57.138;-2.118;2023-04-29T16:49:01;9.30;99.90
29003;DHT22;16102;57.138;-2.118;2023-04-29T16:51:29;9.20;99.90
29003;DHT22;16102;57.138;-2.118;2023-04-29T16:53:56;9.00;99.90
29003;DHT22;16102;57.138;-2.118;2023-04-29T16:56:23;8.90;99.90
29003;DHT22;16102;57.138;-2.118;2023-04-29T16:58:50;8.70;99.90
29003;DHT22;16102;57.138;-2.118;2023-04-29T17:01:17;8.70;99.90
29003;DHT22;16102;57.138;-2.118;2023-04-29T17:03:46;8.60;99.90
29003;DHT22;16102;57.138;-2.118;2023-04-29T17:06:14;8.60;99.90
29003;DHT22;16102;57.138;-2.118;2023-04-29T17:08:41;8.60;99.90
29003;DHT22;16102;57.138;-2.118;2023-04-29T17:11:08;8.70;99.90
29003;DHT22;16102;57.138;-2.118;2023-04-29T17:13:36;8.70;99.90
29003;DHT22;16102;57.138;-2.118;2023-04-29T17:16:03;8.70;99.90
29003;DHT22;16102;57.138;-2.118;2023-04-29T17:18:30;8.70;99.90
29003;DHT22;16102;57.138;-2.118;2023-04-29T17:20:58;8.50;99.90
29003;DHT22;16102;57.138;-2.118;2023-04-29T17:23:24;8.60;99.90
29003;DHT22;16102;57.138;-2.118;2023-04-29T17:25:51;8.60;99.90
29003;DHT22;16102;57.138;-2.118;2023-04-29T17:28:20;8.70;99.90
29003;DHT22;16102;57.138;-2.118;2023-04-29T17:30:47;8.80;99.90
29003;DHT22;16102;57.138;-2.118;2023-04-29T17:33:14;8.80;99.90
29003;DHT22;16102;57.138;-2.118;2023-04-29T17:35:43;8.80;99.90
29003;DHT22;16102;57.138;-2.118;2023-04-29T17:38:10;8.50;99.90
29003;DHT22;16102;57.138;-2.118;2023-04-29T17:40:38;8.40;99.90
29003;DHT22;16102;57.138;-2.118;2023-04-29T17:43:05;8.40;99.90
29003;DHT22;16102;57.138;-2.118;2023-04-29T17:45:31;8.60;99.90
29003;DHT22;16102;57.138;-2.118;2023-04-29T17:47:59;8.40;99.90
29003;DHT22;16102;57.138;-2.118;2023-04-29T17:50:26;8.60;99.90
29003;DHT22;16102;57.138;-2.118;2023-04-29T17:52:53;8.70;99.90
29003;DHT22;16102;57.138;-2.118;2023-04-29T17:55:20;8.80;99.90
29003;DHT22;16102;57.138;-2.118;2023-04-29T17:57:47;8.80;99.90
29003;DHT22;16102;57.138;-2.118;2023-04-29T18:00:14;8.80;99.90
29003;DHT22;16102;57.138;-2.118;2023-04-29T18:02:41;8.80;99.90
29003;DHT22;16102;57.138;-2.118;2023-04-29T18:05:08;8.70;99.90
29003;DHT22;16102;57.138;-2.118;2023-04-29T18:07:35;8.60;99.90
29003;DHT22;16102;57.138;-2.118;2023-04-29T18:10:02;8.40;99.90
29003;DHT22;16102;57.138;-2.118;2023-04-29T18:12:31;8.50;99.90
29003;DHT22;16102;57.138;-2.118;2023-04-29T18:14:58;8.30;99.90
29003;DHT22;16102;57.138;-2.118;2023-04-29T18:17:26;8.20;99.90
29003;DHT22;16102;57.138;-2.118;2023-04-29T18:19:53;8.30;99.90
29003;DHT22;16102;57.138;-2.118;2023-04-29T18:22:20;8.30;99.90
29003;DHT22;16102;57.138;-2.118;2023-04-29T18:24:47;8.40;99.90
29003;DHT22;16102;57.138;-2.118;2023-04-29T18:27:15;8.50;99.90
29003;DHT22;16102;57.138;-2.118;2023-04-29T18:29:43;8.40;99.90
29003;DHT22;16102;57.138;-2.118;2023-04-29T18:32:10;8.30;99.90
29003;DHT22;16102;57.138;-2.118;2023-04-29T18:34:37;8.50;99.90
29003;DHT22;16102;57.138;-2.118;2023-04-29T18:37:04;8.50;99.90
29003;DHT22;16102;57.138;-2.118;2023-04-29T18:39:31;8.50;99.90
29003;DHT22;16102;57.138;-2.118;2023-04-29T18:41:58;8.50;99.90
29003;DHT22;16102;57.138;-2.118;2023-04-29T18:44:25;8.40;99.90
29003;DHT22;16102;57.138;-2.118;2023-04-29T18:46:53;8.40;99.90
29003;DHT22;16102;57.138;-2.118;2023-04-29T18:49:20;8.40;99.90
29003;DHT22;16102;57.138;-2.118;2023-04-29T18:51:47;8.30;99.90
29003;DHT22;16102;57.138;-2.118;2023-04-29T18:54:17;8.40;99.90
29003;DHT22;16102;57.138;-2.118;2023-04-29T18:56:46;8.40;99.90
29003;DHT22;16102;57.138;-2.118;2023-04-29T18:59:14;8.40;99.90
29003;DHT22;16102;57.138;-2.118;2023-04-29T19:01:46;8.30;99.90
29003;DHT22;16102;57.138;-2.118;2023-04-29T19:04:13;8.20;99.90
29003;DHT22;16102;57.138;-2.118;2023-04-29T19:06:41;8.10;99.90
29003;DHT22;16102;57.138;-2.118;2023-04-29T19:09:09;8.10;99.90
29003;DHT22;16102;57.138;-2.118;2023-04-29T19:11:37;7.90;99.90
29003;DHT22;16102;57.138;-2.118;2023-04-29T19:14:04;7.90;99.90
29003;DHT22;16102;57.138;-2.118;2023-04-29T19:16:31;7.90;99.90
29003;DHT22;16102;57.138;-2.118;2023-04-29T19:19:02;7.90;99.90
29003;DHT22;16102;57.138;-2.118;2023-04-29T19:21:31;8.00;99.90
29003;DHT22;16102;57.138;-2.118;2023-04-29T19:23:58;8.00;99.90
29003;DHT22;16102;57.138;-2.118;2023-04-29T19:26:25;8.10;99.90
29003;DHT22;16102;57.138;-2.118;2023-04-29T19:28:53;8.00;99.90
29003;DHT22;16102;57.138;-2.118;2023-04-29T19:31:20;7.90;99.90
29003;DHT22;16102;57.138;-2.118;2023-04-29T19:33:47;7.90;99.90
29003;DHT22;16102;57.138;-2.118;2023-04-29T19:36:14;7.80;99.90
29003;DHT22;16102;57.138;-2.118;2023-04-29T19:38:41;7.80;99.90
29003;DHT22;16102;57.138;-2.118;2023-04-29T19:41:08;7.70;99.90
29003;DHT22;16102;57.138;-2.118;2023-04-29T19:43:35;7.80;99.90
29003;DHT22;16102;57.138;-2.118;2023-04-29T19:46:02;7.80;99.90
29003;DHT22;16102;57.138;-2.118;2023-04-29T19:48:29;7.90;99.90
29003;DHT22;16102;57.138;-2.118;2023-04-29T19:50:56;7.90;99.90
29003;DHT22;16102;57.138;-2.118;2023-04-29T19:53:25;8.00;99.90
29003;DHT22;16102;57.138;-2.118;2023-04-29T19:55:52;8.00;99.90
29003;DHT22;16102;57.138;-2.118;2023-04-29T19:58:19;7.90;99.90
29003;DHT22;16102;57.138;-2.118;2023-04-29T20:00:46;7.90;99.90
29003;DHT22;16102;57.138;-2.118;2023-04-29T20:03:13;8.00;99.90
29003;DHT22;16102;57.138;-2.118;2023-04-29T20:05:41;7.90;99.90
29003;DHT22;16102;57.138;-2.118;2023-04-29T20:08:09;7.80;1.00
29003;DHT22;16102;57.138;-2.118;2023-04-29T20:10:36;7.90;99.90
29003;DHT22;16102;57.138;-2.118;2023-04-29T20:13:03;7.90;99.90
29003;DHT22;16102;57.138;-2.118;2023-04-29T20:15:30;7.90;99.90
29003;DHT22;16102;57.138;-2.118;2023-04-29T20:17:57;7.90;99.90
29003;DHT22;16102;57.138;-2.118;2023-04-29T20:20:24;7.90;99.90
29003;DHT22;16102;57.138;-2.118;2023-04-29T20:22:51;7.80;99.90
29003;DHT22;16102;57.138;-2.118;2023-04-29T20:25:23;7.80;99.90
29003;DHT22;16102;57.138;-2.118;2023-04-29T20:27:51;7.90;99.90
29003;DHT22;16102;57.138;-2.118;2023-04-29T20:30:23;7.80;99.90
29003;DHT22;16102;57.138;-2.118;2023-04-29T20:32:51;7.70;1.00
29003;DHT22;16102;57.138;-2.118;2023-04-29T20:35:18;7.70;99.90
29003;DHT22;16102;57.138;-2.118;2023-04-29T20:37:46;7.70;99.90
29003;DHT22;16102;57.138;-2.118;2023-04-29T20:40:13;7.70;99.90
29003;DHT22;16102;57.138;-2.118;2023-04-29T20:42:40;7.80;99.90
29003;DHT22;16102;57.138;-2.118;2023-04-29T20:45:07;7.80;99.90
29003;DHT22;16102;57.138;-2.118;2023-04-29T20:47:35;7.80;99.90
29003;DHT22;16102;57.138;-2.118;2023-04-29T20:50:02;7.80;99.90